createdAt,value
2023-02-05T17:04:49.898Z,20.26
2023-02-05T17:09:49.855Z,18.84
2023-02-05T17:14:49.867Z,19.34
2023-02-05T17:19:49.904Z,23.42
2023-02-05T17:24:49.869Z,18.06
2023-02-05T17:29:49.896Z,16.32
2023-02-05T17:34:49.893Z,16.91
2023-02-05T17:39:49.884Z,19.09
2023-02-05T17:44:49.875Z,22.17
2023-02-05T17:49:49.875Z,21.84
2023-02-05T17:54:49.904Z,20.51
2023-02-05T17:59:49.875Z,20.55
2023-02-05T18:04:49.946Z,21.26
2023-02-05T18:09:49.891Z,23.65
2023-02-05T18:14:49.902Z,23.61
2023-02-05T18:19:49.891Z,25.68
2023-02-05T18:24:49.878Z,26.26
2023-02-05T18:29:49.881Z,28.37
2023-02-05T18:34:49.923Z,29.13
2023-02-05T18:39:49.927Z,30.75
2023-02-05T18:44:49.882Z,31.44
2023-02-05T18:49:49.934Z,31.97
2023-02-05T18:54:49.917Z,34.15
2023-02-05T18:59:49.913Z,33.75
2023-02-05T19:04:49.893Z,30.84
2023-02-05T19:09:49.886Z,28.8
2023-02-05T19:14:49.956Z,28.51
2023-02-05T19:19:49.891Z,28.57
2023-02-05T19:24:49.963Z,26.35
2023-02-05T19:29:49.924Z,23.27
2023-02-05T19:34:49.926Z,24
2023-02-05T19:39:49.907Z,26.81
2023-02-05T19:44:49.974Z,26.94
2023-02-05T19:49:49.933Z,25.78
2023-02-05T19:54:49.934Z,25.05
2023-02-05T19:59:49.952Z,23.83
2023-02-05T20:04:49.962Z,23.78
2023-02-05T20:09:49.929Z,24.95
2023-02-05T20:14:49.941Z,23.05
2023-02-05T20:19:50.247Z,24.62
2023-02-05T20:24:49.914Z,23.87
2023-02-05T20:29:49.908Z,22.9
2023-02-05T20:34:49.907Z,23.53
2023-02-05T20:39:49.918Z,23.66
2023-02-05T20:44:49.945Z,25.64
2023-02-05T20:49:49.945Z,26.93
2023-02-05T20:54:49.923Z,26.8
2023-02-05T20:59:49.957Z,27.28
2023-02-05T21:04:52.240Z,24.6
2023-02-05T21:09:49.956Z,20.78
2023-02-05T21:14:49.938Z,21.62
2023-02-05T21:19:49.958Z,20.45
2023-02-05T21:24:49.929Z,21.6
2023-02-05T21:29:49.927Z,20.09
2023-02-05T21:34:49.923Z,18.55
2023-02-05T21:39:52.680Z,19.88
2023-02-05T21:44:49.939Z,18.52
2023-02-05T21:49:49.946Z,20.11
2023-02-05T21:54:49.928Z,19.49
2023-02-05T21:59:49.943Z,18.46
2023-02-05T22:04:49.942Z,19.6
2023-02-05T22:09:49.945Z,17.78
2023-02-05T22:14:49.978Z,18.23
2023-02-05T22:19:49.972Z,18.98
2023-02-05T22:24:49.982Z,18.97
2023-02-05T22:29:49.953Z,19.44
2023-02-05T22:34:49.996Z,17.93
2023-02-05T22:39:49.949Z,18.21
2023-02-05T22:44:49.945Z,18.06
2023-02-05T22:49:49.996Z,17.1
2023-02-05T22:54:49.956Z,16.8
2023-02-05T22:59:49.963Z,15.94
2023-02-05T23:04:49.953Z,15.5
2023-02-05T23:09:49.959Z,18.13
2023-02-05T23:14:49.989Z,17.72
2023-02-05T23:19:49.971Z,17.17
2023-02-05T23:24:49.956Z,16.22
2023-02-05T23:29:49.990Z,17.32
2023-02-05T23:34:49.969Z,18.09
2023-02-05T23:39:50.011Z,18.62
2023-02-05T23:44:50.003Z,18.37
2023-02-05T23:49:50.017Z,17.89
2023-02-05T23:54:50.001Z,18.33
2023-02-05T23:59:49.975Z,17.74
